Airfield :
LOGIN :

Register | Disclaimer

   EN    FR    IT 

 










Legend :    VFR   Marginal VFR   IFR   Intensive IFR   Very Intensive IFR
Visi :
Ceiling :
>= 8 km
>= 3000ft
5 to 8 km
1000 to 3000 ft
1500m to 5 km
500 to 1000 ft
800 to 1500m
200 to 500 ft
< 800m
< 200 ft
Symbols :   Thunderstorms  Fog  Heavy snow  Heavy precipitations  Wind > 20 kt
SIGMETs :     Misc.  Thunderstorms  Icing  Turbulence  Mountain Waves  Volcanic Ashes







- Airport Elevation : 147 ft
- IATA code : DUS


EDDL - Düsseldorf Int.

CURRENT METAR :
  • 240520Z VRB02KT 8000 RADZ FEW007 SCT012 BKN025 09/08 Q1006 TEMPO 4000 BKN012

EXPIRED METARs :
  • 240450Z 15003KT 090V200 9999 RADZ FEW010 BKN024 OVC040 09/08 Q1005 TEMPO 4000 BKN012
  • 240420Z 10005KT 9999 -RA FEW010 BKN060 09/08 Q1005 RERA TEMPO RA
  • 240350Z 16005KT 130V190 9999 RADZ FEW020 BKN035 BKN050 09/08 Q1006 BECMG NSW
  • 240320Z 17004KT 9999 -RADZ FEW020 OVC036 09/08 Q1007 RERA TEMPO RA
  • 240250Z 18007KT 9999 RADZ FEW020 OVC036 09/08 Q1007 TEMPO 4000 BKN012

TAF TAF EDDL
Valid from the 24 at 06:00 until the 25 at 12:00 UTC


240500Z 2406/2512 12006KT 9999 BKN030
TEMPO 2406/2410 4000 RA BKN012
BECMG 2408/2411 25006KT
TEMPO 2410/2413 BKN012
BECMG 2418/2421 19005KT
TEMPO 2503/2508 4000 -RA BKN012
No reported NOTAMs for that airfield.



MET'MAP, your aeronautical weather chart ! - Copyright ORBIFLY December 2007 - Disclaimer

ORBIFLY MET'MAP TEAM :

Programming & Development : Alexandra Zaïnal
Concept & Development : Baudouin d'Aumeries
Co-Development & Prog : Marc-Olivier Méhu
Technical & hardware support : Manuel Goepfert

Contact : metmap@orbifly.com




SOURCES & CREDITS :

   NOAA